Miami, FL (33156)

11:50 PM EST on February 10, 2016 (GMT -0500)
Village of Pinecrest | | Change Station
CLOSE
Current Station
Personal Weather Station
Location: Village of Pinecrest / Miami, FL
Elevation: 15 ft
Nearby Weather Stations

Elev 15 ft 25.66 °N, 80.30 °W | Updated 7 minutes ago

Partly Cloudy
Partly Cloudy
54.5 °F
Feels Like 54.5 °F
N
0.0
Wind Variable Wind from NNW
Gusts 6.0 mph

Today
High -- | Low -- °F
--% Chance of Precip.
Yesterday
High -- | Low -- °F
Precip. -- in
Pressure 30.29 in
Visibility 10.0 miles
Clouds Scattered Clouds 30000 ft
Dew Point 46 °F
Humidity 74%
Rainfall Not available.
Snow Depth Not available.
6:59 AM 6:11 PM
Waxing Crescent, 9% visible
METAR KMIA 110353Z 32010G17KT 10SM SCT300 13/06 A3028 RMK AO2 SLP255 T01330061
Pressure 30.29 in
Visibility 10.0 miles
Clouds Scattered Clouds 30000 ft
Dew Point 46 °F
Humidity 74%
Rainfall Not available.
Snow Depth Not available.
6:59 AM 6:11 PM
Waxing Crescent, 9% visible
METAR KMIA 110353Z 32010G17KT 10SM SCT300 13/06 A3028 RMK AO2 SLP255 T01330061

10-Day Weather Forecast

Almanac

Astronomy

Feb. 10, 2016 Rise Set
Actual Time
Civil Twilight
Nautical Twilight
Astronomical Twilight
Moon
Length of Visible Light
Length of Day
Tomorrow will be .
, % of the Moon is Illuminated

Today's Extremes

State Highs State Lows

Community

WunderPhotos

Upload Photos

1,892,015 photos uploaded!

WunderBlog® & News

Nearby

Air Quality

  Air Quality AQ Index Pollutant
Not available.

Snow Depth

Station Depth Elevation

Earthquake Activity

City Distance Mag. Time & Date
Minimum magnitude displayed is 2.5.

Coastal Water Temperatures

Place Temperature

Stations

Nearby Weather Stations

Station Location Temp. Windchill Dew Point Humidity Wind Precip. Elev Updated Type
                   

Watches & Warnings

There are currently no watches in effect.